sensor_id;sensor_type;location;lat;lon;timestamp;pressure;altitude;pressure_sealevel;temperature;humidity
40730;BME280;26418;50.070;8.436;2024-03-22T00:02:08;100702.59;;;9.07;90.85
40730;BME280;26418;50.070;8.436;2024-03-22T00:04:36;100682.66;;;8.98;91.07
40730;BME280;26418;50.070;8.436;2024-03-22T00:07:02;100692.91;;;8.95;91.31
40730;BME280;26418;50.070;8.436;2024-03-22T00:09:28;100679.66;;;8.89;91.69
40730;BME280;26418;50.070;8.436;2024-03-22T00:11:54;100674.28;;;8.84;91.65
40730;BME280;26418;50.070;8.436;2024-03-22T00:14:19;100679.13;;;8.81;91.91
40730;BME280;26418;50.070;8.436;2024-03-22T00:16:48;100676.69;;;8.75;92.05
40730;BME280;26418;50.070;8.436;2024-03-22T00:19:14;100681.00;;;8.76;92.24
40730;BME280;26418;50.070;8.436;2024-03-22T00:21:45;100672.66;;;8.67;92.67
40730;BME280;26418;50.070;8.436;2024-03-22T00:24:11;100675.38;;;8.67;93.13
40730;BME280;26418;50.070;8.436;2024-03-22T00:26:36;100668.63;;;8.70;93.52
40730;BME280;26418;50.070;8.436;2024-03-22T00:29:02;100668.59;;;8.75;93.15
40730;BME280;26418;50.070;8.436;2024-03-22T00:31:27;100659.19;;;8.67;92.56
40730;BME280;26418;50.070;8.436;2024-03-22T00:34:02;100666.72;;;8.65;92.76
40730;BME280;26418;50.070;8.436;2024-03-22T00:36:30;100656.75;;;8.60;93.28
40730;BME280;26418;50.070;8.436;2024-03-22T00:38:56;100657.81;;;8.59;93.12
40730;BME280;26418;50.070;8.436;2024-03-22T00:41:22;100655.38;;;8.53;92.90
40730;BME280;26418;50.070;8.436;2024-03-22T00:43:48;100656.69;;;8.45;92.94
40730;BME280;26418;50.070;8.436;2024-03-22T00:46:13;100646.41;;;8.31;92.88
40730;BME280;26418;50.070;8.436;2024-03-22T00:48:39;100649.63;;;8.23;93.36
40730;BME280;26418;50.070;8.436;2024-03-22T00:51:06;100636.16;;;8.13;94.43
40730;BME280;26418;50.070;8.436;2024-03-22T00:53:32;100642.34;;;8.18;95.49
40730;BME280;26418;50.070;8.436;2024-03-22T00:55:57;100635.91;;;8.25;94.92
40730;BME280;26418;50.070;8.436;2024-03-22T00:58:26;100639.72;;;8.34;94.32
40730;BME280;26418;50.070;8.436;2024-03-22T01:00:51;100640.22;;;8.36;94.13
40730;BME280;26418;50.070;8.436;2024-03-22T01:03:17;100629.97;;;8.28;94.57
40730;BME280;26418;50.070;8.436;2024-03-22T01:05:43;100634.28;;;8.29;94.51
40730;BME280;26418;50.070;8.436;2024-03-22T01:08:09;100639.16;;;8.32;94.77
40730;BME280;26418;50.070;8.436;2024-03-22T01:10:38;100626.50;;;8.22;94.44
40730;BME280;26418;50.070;8.436;2024-03-22T01:13:04;100626.97;;;8.09;94.92
40730;BME280;26418;50.070;8.436;2024-03-22T01:15:32;100615.09;;;7.99;96.04
40730;BME280;26418;50.070;8.436;2024-03-22T01:17:58;100614.59;;;7.97;96.65
40730;BME280;26418;50.070;8.436;2024-03-22T01:20:24;100612.69;;;8.03;96.74
40730;BME280;26418;50.070;8.436;2024-03-22T01:22:49;100618.09;;;8.08;96.28
40730;BME280;26418;50.070;8.436;2024-03-22T01:25:15;100622.94;;;8.06;96.45
40730;BME280;26418;50.070;8.436;2024-03-22T01:27:40;100606.75;;;7.96;96.03
40730;BME280;26418;50.070;8.436;2024-03-22T01:30:06;100619.69;;;8.04;96.00
40730;BME280;26418;50.070;8.436;2024-03-22T01:32:36;100622.16;;;8.06;96.31
40730;BME280;26418;50.070;8.436;2024-03-22T01:35:05;100622.66;;;8.02;96.31
40730;BME280;26418;50.070;8.436;2024-03-22T01:37:33;100607.84;;;8.00;96.32
40730;BME280;26418;50.070;8.436;2024-03-22T01:39:59;100619.69;;;7.99;96.43
40730;BME280;26418;50.070;8.436;2024-03-22T01:42:24;100622.13;;;8.00;96.46
40730;BME280;26418;50.070;8.436;2024-03-22T01:44:50;100608.38;;;7.97;96.66
40730;BME280;26418;50.070;8.436;2024-03-22T01:47:18;100614.03;;;8.00;96.54
40730;BME280;26418;50.070;8.436;2024-03-22T01:49:44;100614.31;;;7.99;96.47
40730;BME280;26418;50.070;8.436;2024-03-22T01:52:09;100613.25;;;8.05;96.14
40730;BME280;26418;50.070;8.436;2024-03-22T01:54:35;100608.91;;;8.04;96.15
40730;BME280;26418;50.070;8.436;2024-03-22T01:57:01;100607.84;;;8.00;96.51
40730;BME280;26418;50.070;8.436;2024-03-22T01:59:28;100605.41;;;7.93;96.80
40730;BME280;26418;50.070;8.436;2024-03-22T02:01:54;100607.53;;;7.86;96.97
40730;BME280;26418;50.070;8.436;2024-03-22T02:04:20;100601.31;;;7.80;97.15
40730;BME280;26418;50.070;8.436;2024-03-22T02:06:45;100591.34;;;7.76;97.61
40730;BME280;26418;50.070;8.436;2024-03-22T02:09:14;100592.44;;;7.80;97.93
40730;BME280;26418;50.070;8.436;2024-03-22T02:11:40;100580.03;;;7.74;98.08
40730;BME280;26418;50.070;8.436;2024-03-22T02:14:09;100580.84;;;7.74;98.04
40730;BME280;26418;50.070;8.436;2024-03-22T02:16:35;100568.19;;;7.69;98.44
40730;BME280;26418;50.070;8.436;2024-03-22T02:19:03;100560.38;;;7.68;99.21
40730;BME280;26418;50.070;8.436;2024-03-22T02:21:29;100567.63;;;7.72;99.10
40730;BME280;26418;50.070;8.436;2024-03-22T02:23:54;100562.25;;;7.72;99.18
40730;BME280;26418;50.070;8.436;2024-03-22T02:26:23;100557.41;;;7.69;99.39
40730;BME280;26418;50.070;8.436;2024-03-22T02:28:48;100557.94;;;7.66;99.85
40730;BME280;26418;50.070;8.436;2024-03-22T02:31:14;100556.84;;;7.62;99.98
40730;BME280;26418;50.070;8.436;2024-03-22T02:33:40;100551.19;;;7.59;100.00
40730;BME280;26418;50.070;8.436;2024-03-22T02:36:05;100541.47;;;7.47;100.00
40730;BME280;26418;50.070;8.436;2024-03-22T02:38:34;100541.97;;;7.44;100.00
40730;BME280;26418;50.070;8.436;2024-03-22T02:41:00;100541.19;;;7.44;100.00
40730;BME280;26418;50.070;8.436;2024-03-22T02:43:25;100534.44;;;7.41;100.00
40730;BME280;26418;50.070;8.436;2024-03-22T02:45:51;100544.38;;;7.40;100.00
40730;BME280;26418;50.070;8.436;2024-03-22T04:05:43;100499.47;;;7.46;100.00
40730;BME280;26418;50.070;8.436;2024-03-22T04:08:09;100499.19;;;7.48;100.00
40730;BME280;26418;50.070;8.436;2024-03-22T04:10:34;100490.31;;;7.52;100.00
40730;BME280;26418;50.070;8.436;2024-03-22T04:13:00;100479.81;;;7.51;100.00
40730;BME280;26418;50.070;8.436;2024-03-22T04:15:29;100482.00;;;7.54;100.00
40730;BME280;26418;50.070;8.436;2024-03-22T04:17:56;100472.28;;;7.48;100.00
40730;BME280;26418;50.070;8.436;2024-03-22T04:20:22;100482.53;;;7.56;100.00
40730;BME280;26418;50.070;8.436;2024-03-22T04:22:47;100471.50;;;7.58;100.00
40730;BME280;26418;50.070;8.436;2024-03-22T04:25:15;100467.22;;;7.67;100.00
40730;BME280;26418;50.070;8.436;2024-03-22T04:27:40;100466.16;;;7.73;100.00
40730;BME280;26418;50.070;8.436;2024-03-22T04:30:10;100477.97;;;7.77;100.00
40730;BME280;26418;50.070;8.436;2024-03-22T04:32:35;100469.38;;;7.75;100.00
40730;BME280;26418;50.070;8.436;2024-03-22T04:35:04;100465.63;;;7.76;100.00
40730;BME280;26418;50.070;8.436;2024-03-22T04:37:30;100466.69;;;7.75;100.00
40730;BME280;26418;50.070;8.436;2024-03-22T04:39:58;100465.88;;;7.69;100.00
40730;BME280;26418;50.070;8.436;2024-03-22T04:42:24;100465.59;;;7.66;100.00
40730;BME280;26418;50.070;8.436;2024-03-22T04:44:49;100461.28;;;7.65;100.00
40730;BME280;26418;50.070;8.436;2024-03-22T04:47:18;100467.22;;;7.67;100.00
40730;BME280;26418;50.070;8.436;2024-03-22T04:49:43;100466.13;;;7.63;100.00
40730;BME280;26418;50.070;8.436;2024-03-22T04:52:18;100466.66;;;7.60;100.00
40730;BME280;26418;50.070;8.436;2024-03-22T04:54:47;100480.09;;;7.60;100.00
40730;BME280;26418;50.070;8.436;2024-03-22T04:57:13;100476.63;;;7.59;100.00
40730;BME280;26418;50.070;8.436;2024-03-22T04:59:38;100479.59;;;7.58;100.00
40730;BME280;26418;50.070;8.436;2024-03-22T05:02:07;100474.19;;;7.58;100.00
40730;BME280;26418;50.070;8.436;2024-03-22T05:04:35;100478.22;;;7.50;100.00
40730;BME280;26418;50.070;8.436;2024-03-22T05:07:01;100475.00;;;7.53;100.00
40730;BME280;26418;50.070;8.436;2024-03-22T05:09:26;100476.88;;;7.58;100.00
40730;BME280;26418;50.070;8.436;2024-03-22T05:11:52;100471.75;;;7.56;100.00
40730;BME280;26418;50.070;8.436;2024-03-22T05:14:21;100464.47;;;7.51;100.00
40730;BME280;26418;50.070;8.436;2024-03-22T05:16:46;100470.97;;;7.55;100.00
40730;BME280;26418;50.070;8.436;2024-03-22T05:19:12;100476.88;;;7.52;100.00
40730;BME280;26418;50.070;8.436;2024-03-22T05:21:43;100471.22;;;7.54;100.00
40730;BME280;26418;50.070;8.436;2024-03-22T05:24:09;100468.00;;;7.52;100.00
40730;BME280;26418;50.070;8.436;2024-03-22T05:26:40;100462.06;;;7.50;100.00
40730;BME280;26418;50.070;8.436;2024-03-22T05:29:06;100470.13;;;7.50;100.00
40730;BME280;26418;50.070;8.436;2024-03-22T05:31:46;100470.16;;;7.55;100.00
40730;BME280;26418;50.070;8.436;2024-03-22T05:34:12;100465.56;;;7.50;100.00
40730;BME280;26418;50.070;8.436;2024-03-22T05:36:45;100473.66;;;7.55;100.00
40730;BME280;26418;50.070;8.436;2024-03-22T05:39:13;100469.06;;;7.56;100.00
40730;BME280;26418;50.070;8.436;2024-03-22T05:41:40;100468.03;;;7.62;100.00
40730;BME280;26418;50.070;8.436;2024-03-22T05:44:05;100460.50;;;7.69;100.00
40730;BME280;26418;50.070;8.436;2024-03-22T05:46:31;100453.75;;;7.77;100.00
40730;BME280;26418;50.070;8.436;2024-03-22T05:49:03;100472.09;;;7.91;100.00
40730;BME280;26418;50.070;8.436;2024-03-22T05:51:31;100458.34;;;7.92;100.00
40730;BME280;26418;50.070;8.436;2024-03-22T05:54:00;100454.28;;;7.95;100.00
40730;BME280;26418;50.070;8.436;2024-03-22T05:56:25;100460.75;;;8.04;100.00
40730;BME280;26418;50.070;8.436;2024-03-22T05:58:51;100456.72;;;8.07;100.00
40730;BME280;26418;50.070;8.436;2024-03-22T06:01:25;100454.59;;;8.14;100.00
40730;BME280;26418;50.070;8.436;2024-03-22T06:03:51;100447.56;;;8.18;100.00
40730;BME280;26418;50.070;8.436;2024-03-22T06:06:16;100443.78;;;8.24;100.00
40730;BME280;26418;50.070;8.436;2024-03-22T06:08:45;100440.78;;;8.36;100.00
40730;BME280;26418;50.070;8.436;2024-03-22T06:11:11;100437.81;;;8.48;100.00
40730;BME280;26418;50.070;8.436;2024-03-22T06:13:36;100430.00;;;8.57;100.00
40730;BME280;26418;50.070;8.436;2024-03-22T06:16:05;100431.34;;;8.59;100.00
40730;BME280;26418;50.070;8.436;2024-03-22T06:18:34;100435.38;;;8.67;100.00
40730;BME280;26418;50.070;8.436;2024-03-22T06:20:59;100428.63;;;8.70;100.00
40730;BME280;26418;50.070;8.436;2024-03-22T06:23:28;100414.59;;;8.68;100.00
40730;BME280;26418;50.070;8.436;2024-03-22T06:25:55;100429.13;;;8.77;100.00
40730;BME280;26418;50.070;8.436;2024-03-22T06:28:23;100423.19;;;8.80;100.00
40730;BME280;26418;50.070;8.436;2024-03-22T06:30:49;100424.50;;;8.88;100.00
40730;BME280;26418;50.070;8.436;2024-03-22T06:33:18;100422.88;;;8.92;100.00
40730;BME280;26418;50.070;8.436;2024-03-22T06:35:44;100428.47;;;9.01;100.00
40730;BME280;26418;50.070;8.436;2024-03-22T06:38:10;100413.13;;;9.01;100.00
40730;BME280;26418;50.070;8.436;2024-03-22T06:40:35;100419.22;;;9.17;100.00
40730;BME280;26418;50.070;8.436;2024-03-22T06:43:01;100423.97;;;9.36;100.00
40730;BME280;26418;50.070;8.436;2024-03-22T06:45:27;100417.47;;;9.42;100.00
40730;BME280;26418;50.070;8.436;2024-03-22T06:47:53;100419.91;;;9.43;100.00
40730;BME280;26418;50.070;8.436;2024-03-22T06:50:21;100414.50;;;9.43;100.00
40730;BME280;26418;50.070;8.436;2024-03-22T06:52:53;100408.81;;;9.45;100.00
40730;BME280;26418;50.070;8.436;2024-03-22T06:55:27;100405.28;;;9.50;100.00
40730;BME280;26418;50.070;8.436;2024-03-22T06:57:53;100402.75;;;9.58;100.00
40730;BME280;26418;50.070;8.436;2024-03-22T07:00:18;100410.56;;;9.65;100.00
40730;BME280;26418;50.070;8.436;2024-03-22T07:02:50;100398.63;;;9.71;100.00
40730;BME280;26418;50.070;8.436;2024-03-22T07:05:16;100398.81;;;9.80;100.00
40730;BME280;26418;50.070;8.436;2024-03-22T07:07:44;100406.56;;;9.92;99.27
40730;BME280;26418;50.070;8.436;2024-03-22T07:10:10;100383.28;;;9.96;95.94
40730;BME280;26418;50.070;8.436;2024-03-22T07:12:35;100400.44;;;10.11;95.14
40730;BME280;26418;50.070;8.436;2024-03-22T07:15:01;100389.50;;;10.21;95.37
40730;BME280;26418;50.070;8.436;2024-03-22T07:17:28;100394.53;;;10.33;95.64
40730;BME280;26418;50.070;8.436;2024-03-22T07:19:57;100391.72;;;10.48;95.06
40730;BME280;26418;50.070;8.436;2024-03-22T07:22:22;100394.47;;;10.67;94.28
40730;BME280;26418;50.070;8.436;2024-03-22T07:24:48;100383.78;;;10.76;92.31
40730;BME280;26418;50.070;8.436;2024-03-22T07:27:14;100382.28;;;10.89;91.38
40730;BME280;26418;50.070;8.436;2024-03-22T07:29:45;100375.47;;;10.92;89.16
40730;BME280;26418;50.070;8.436;2024-03-22T07:32:11;100361.34;;;10.76;88.40
40730;BME280;26418;50.070;8.436;2024-03-22T07:34:37;100375.41;;;10.78;89.47
40730;BME280;26418;50.070;8.436;2024-03-22T07:37:02;100375.41;;;10.78;89.82
40730;BME280;26418;50.070;8.436;2024-03-22T07:39:32;100372.63;;;10.83;88.84
40730;BME280;26418;50.070;8.436;2024-03-22T07:42:04;100381.19;;;10.90;88.39
40730;BME280;26418;50.070;8.436;2024-03-22T07:44:32;100379.28;;;10.91;89.28
40730;BME280;26418;50.070;8.436;2024-03-22T07:46:57;100373.22;;;10.99;88.70
40730;BME280;26418;50.070;8.436;2024-03-22T07:49:26;100380.47;;;11.04;87.83
40730;BME280;26418;50.070;8.436;2024-03-22T07:51:52;100380.47;;;11.04;88.61
40730;BME280;26418;50.070;8.436;2024-03-22T07:54:24;100356.91;;;11.04;87.83
40730;BME280;26418;50.070;8.436;2024-03-22T07:56:49;100366.63;;;11.24;88.59
40730;BME280;26418;50.070;8.436;2024-03-22T07:59:23;100363.84;;;11.29;87.52
40730;BME280;26418;50.070;8.436;2024-03-22T08:01:48;100362.91;;;11.39;87.89
40730;BME280;26418;50.070;8.436;2024-03-22T08:04:23;100354.38;;;11.46;87.21
40730;BME280;26418;50.070;8.436;2024-03-22T08:06:50;100348.38;;;11.49;87.39
40730;BME280;26418;50.070;8.436;2024-03-22T08:09:19;100358.63;;;11.52;87.41
40730;BME280;26418;50.070;8.436;2024-03-22T08:11:48;100359.34;;;11.58;86.76
40730;BME280;26418;50.070;8.436;2024-03-22T08:14:14;100342.38;;;11.52;86.38
40730;BME280;26418;50.070;8.436;2024-03-22T08:16:40;100355.25;;;11.60;86.48
40730;BME280;26418;50.070;8.436;2024-03-22T08:19:08;100362.50;;;11.65;85.82
40730;BME280;26418;50.070;8.436;2024-03-22T08:21:34;100348.44;;;11.63;85.01
40730;BME280;26418;50.070;8.436;2024-03-22T08:24:00;100343.31;;;11.61;86.09
40730;BME280;26418;50.070;8.436;2024-03-22T08:26:28;100339.81;;;11.75;85.98
40730;BME280;26418;50.070;8.436;2024-03-22T08:28:54;100337.53;;;11.82;85.74
40730;BME280;26418;50.070;8.436;2024-03-22T08:31:19;100340.38;;;11.91;85.53
40730;BME280;26418;50.070;8.436;2024-03-22T08:33:59;100337.47;;;12.01;85.51
40730;BME280;26418;50.070;8.436;2024-03-22T08:36:27;100341.81;;;12.16;85.93
40730;BME280;26418;50.070;8.436;2024-03-22T08:38:58;100326.34;;;12.31;85.00
40730;BME280;26418;50.070;8.436;2024-03-22T08:41:24;100324.13;;;12.33;84.50
40730;BME280;26418;50.070;8.436;2024-03-22T08:43:49;100320.63;;;12.32;84.33
40730;BME280;26418;50.070;8.436;2024-03-22T08:46:18;100328.06;;;12.40;85.15
40730;BME280;26418;50.070;8.436;2024-03-22T08:48:43;100319.69;;;12.51;84.77
40730;BME280;26418;50.070;8.436;2024-03-22T08:51:12;100309.25;;;12.58;84.52
40730;BME280;26418;50.070;8.436;2024-03-22T08:53:37;100306.13;;;12.65;84.36
40730;BME280;26418;50.070;8.436;2024-03-22T08:56:03;100306.09;;;12.79;84.14
40730;BME280;26418;50.070;8.436;2024-03-22T08:58:32;100298.31;;;12.86;83.41
40730;BME280;26418;50.070;8.436;2024-03-22T09:00:57;100297.78;;;12.98;82.72
40730;BME280;26418;50.070;8.436;2024-03-22T09:03:23;100298.19;;;13.05;81.96
40730;BME280;26418;50.070;8.436;2024-03-22T09:05:54;100294.22;;;13.11;81.34
40730;BME280;26418;50.070;8.436;2024-03-22T09:08:20;100293.66;;;13.23;81.01
40730;BME280;26418;50.070;8.436;2024-03-22T09:10:47;100287.41;;;13.23;79.50
40730;BME280;26418;50.070;8.436;2024-03-22T09:13:13;100284.28;;;13.29;79.91
40730;BME280;26418;50.070;8.436;2024-03-22T09:15:45;100284.63;;;13.36;79.93
40730;BME280;26418;50.070;8.436;2024-03-22T09:18:11;100292.44;;;13.52;79.77
40730;BME280;26418;50.070;8.436;2024-03-22T09:20:40;100290.56;;;13.61;78.59
40730;BME280;26418;50.070;8.436;2024-03-22T09:23:05;100293.44;;;13.56;77.29
40730;BME280;26418;50.070;8.436;2024-03-22T09:25:33;100292.31;;;13.57;77.09
40730;BME280;26418;50.070;8.436;2024-03-22T09:28:02;100279.47;;;13.49;76.88
40730;BME280;26418;50.070;8.436;2024-03-22T09:30:28;100279.47;;;13.49;76.37
40730;BME280;26418;50.070;8.436;2024-03-22T09:32:57;100282.19;;;13.49;75.95
40730;BME280;26418;50.070;8.436;2024-03-22T09:35:23;100268.28;;;13.50;76.00
40730;BME280;26418;50.070;8.436;2024-03-22T09:37:54;100262.69;;;13.47;75.73
40730;BME280;26418;50.070;8.436;2024-03-22T09:40:20;100265.47;;;13.56;76.24
40730;BME280;26418;50.070;8.436;2024-03-22T09:42:48;100263.53;;;13.56;75.90
40730;BME280;26418;50.070;8.436;2024-03-22T09:45:15;100253.00;;;13.55;75.43
40730;BME280;26418;50.070;8.436;2024-03-22T09:47:44;100265.22;;;13.75;75.38
40730;BME280;26418;50.070;8.436;2024-03-22T09:50:14;100256.66;;;13.99;74.42
40730;BME280;26418;50.070;8.436;2024-03-22T09:52:41;100258.19;;;14.31;73.39
40730;BME280;26418;50.070;8.436;2024-03-22T09:55:10;100240.78;;;14.50;71.51
40730;BME280;26418;50.070;8.436;2024-03-22T09:57:38;100248.31;;;14.62;70.74
40730;BME280;26418;50.070;8.436;2024-03-22T10:00:08;100253.63;;;14.67;71.39
40730;BME280;26418;50.070;8.436;2024-03-22T10:02:38;100244.34;;;14.68;71.23
40730;BME280;26418;50.070;8.436;2024-03-22T10:05:04;100238.84;;;14.51;71.75
40730;BME280;26418;50.070;8.436;2024-03-22T10:07:29;100238.38;;;14.57;71.54
40730;BME280;26418;50.070;8.436;2024-03-22T10:09:58;100228.50;;;14.88;70.58
40730;BME280;26418;50.070;8.436;2024-03-22T10:12:27;100223.94;;;15.27;71.01
40730;BME280;26418;50.070;8.436;2024-03-22T10:14:56;100209.09;;;15.54;69.12
40730;BME280;26418;50.070;8.436;2024-03-22T10:17:21;100216.44;;;15.63;68.87
40730;BME280;26418;50.070;8.436;2024-03-22T10:19:50;100217.06;;;15.68;69.20
40730;BME280;26418;50.070;8.436;2024-03-22T10:22:17;100209.78;;;15.81;68.59
40730;BME280;26418;50.070;8.436;2024-03-22T10:24:42;100197.13;;;15.77;68.87
40730;BME280;26418;50.070;8.436;2024-03-22T10:27:08;100199.69;;;15.82;68.44
40730;BME280;26418;50.070;8.436;2024-03-22T10:29:35;100184.88;;;15.53;68.68
40730;BME280;26418;50.070;8.436;2024-03-22T10:32:01;100183.06;;;15.27;70.71
40730;BME280;26418;50.070;8.436;2024-03-22T10:34:31;100192.34;;;15.35;71.25
40730;BME280;26418;50.070;8.436;2024-03-22T10:37:00;100176.75;;;15.44;71.17
40730;BME280;26418;50.070;8.436;2024-03-22T10:39:26;100173.19;;;15.52;71.17
40730;BME280;26418;50.070;8.436;2024-03-22T10:41:52;100169.31;;;15.53;70.45
40730;BME280;26418;50.070;8.436;2024-03-22T10:44:18;100172.50;;;15.64;70.52
40730;BME280;26418;50.070;8.436;2024-03-22T10:46:48;100168.53;;;15.53;70.10
40730;BME280;26418;50.070;8.436;2024-03-22T10:49:20;100167.81;;;15.74;70.87
40730;BME280;26418;50.070;8.436;2024-03-22T10:51:49;100158.88;;;15.94;70.35
40730;BME280;26418;50.070;8.436;2024-03-22T10:54:22;100151.19;;;16.39;69.86
40730;BME280;26418;50.070;8.436;2024-03-22T10:56:50;100144.16;;;17.05;67.68
40730;BME280;26418;50.070;8.436;2024-03-22T10:59:21;100143.59;;;17.73;65.24
40730;BME280;26418;50.070;8.436;2024-03-22T11:01:48;100133.72;;;18.34;63.24
40730;BME280;26418;50.070;8.436;2024-03-22T11:04:17;100120.22;;;18.86;60.41
40730;BME280;26418;50.070;8.436;2024-03-22T11:06:48;100104.25;;;19.04;58.97
40730;BME280;26418;50.070;8.436;2024-03-22T11:09:23;100118.44;;;19.22;58.33
40730;BME280;26418;50.070;8.436;2024-03-22T11:11:55;100108.75;;;19.44;57.19
40730;BME280;26418;50.070;8.436;2024-03-22T11:14:22;100099.56;;;19.37;57.12
40730;BME280;26418;50.070;8.436;2024-03-22T11:16:52;100094.09;;;19.21;56.51
40730;BME280;26418;50.070;8.436;2024-03-22T11:19:22;100093.59;;;18.86;57.63
40730;BME280;26418;50.070;8.436;2024-03-22T11:21:48;100094.13;;;18.60;58.17
40730;BME280;26418;50.070;8.436;2024-03-22T11:24:13;100084.78;;;18.33;58.77
40730;BME280;26418;50.070;8.436;2024-03-22T11:26:42;100083.19;;;18.03;59.29
40730;BME280;26418;50.070;8.436;2024-03-22T11:29:09;100067.66;;;17.95;61.18
40730;BME280;26418;50.070;8.436;2024-03-22T11:31:36;100073.31;;;18.15;61.05
40730;BME280;26418;50.070;8.436;2024-03-22T11:34:08;100067.78;;;18.27;59.31
40730;BME280;26418;50.070;8.436;2024-03-22T11:36:35;100067.31;;;18.37;58.41
40730;BME280;26418;50.070;8.436;2024-03-22T11:39:09;100063.28;;;18.35;58.08
40730;BME280;26418;50.070;8.436;2024-03-22T11:41:35;100057.88;;;18.22;58.00
40730;BME280;26418;50.070;8.436;2024-03-22T11:44:01;100055.44;;;18.33;57.81
40730;BME280;26418;50.070;8.436;2024-03-22T11:46:28;100053.78;;;18.45;57.51
40730;BME280;26418;50.070;8.436;2024-03-22T11:48:56;100045.16;;;18.59;57.84
40730;BME280;26418;50.070;8.436;2024-03-22T11:51:23;100041.47;;;18.67;57.60
40730;BME280;26418;50.070;8.436;2024-03-22T11:53:52;100037.66;;;18.72;56.84
40730;BME280;26418;50.070;8.436;2024-03-22T11:56:19;100032.97;;;18.72;56.10
40730;BME280;26418;50.070;8.436;2024-03-22T11:58:49;100040.50;;;18.75;56.17
40730;BME280;26418;50.070;8.436;2024-03-22T12:01:15;100022.97;;;18.64;56.45
40730;BME280;26418;50.070;8.436;2024-03-22T12:03:47;100035.88;;;18.79;55.98
40730;BME280;26418;50.070;8.436;2024-03-22T12:06:12;100023.00;;;18.80;56.04
40730;BME280;26418;50.070;8.436;2024-03-22T12:08:42;100022.19;;;18.79;55.27
40730;BME280;26418;50.070;8.436;2024-03-22T12:11:11;100020.19;;;18.92;55.28
40730;BME280;26418;50.070;8.436;2024-03-22T12:13:40;100007.28;;;18.93;55.26
40730;BME280;26418;50.070;8.436;2024-03-22T12:16:12;100011.00;;;19.36;54.90
40730;BME280;26418;50.070;8.436;2024-03-22T12:18:37;100000.66;;;19.65;54.66
40730;BME280;26418;50.070;8.436;2024-03-22T12:21:03;100003.91;;;19.90;54.28
40730;BME280;26418;50.070;8.436;2024-03-22T12:23:29;99995.09;;;20.20;53.91
40730;BME280;26418;50.070;8.436;2024-03-22T12:25:54;99987.09;;;20.35;53.48
40730;BME280;26418;50.070;8.436;2024-03-22T12:28:24;99983.94;;;20.56;53.29
40730;BME280;26418;50.070;8.436;2024-03-22T12:30:49;99988.66;;;20.79;52.42
40730;BME280;26418;50.070;8.436;2024-03-22T12:33:18;99983.81;;;20.72;51.22
40730;BME280;26418;50.070;8.436;2024-03-22T12:35:47;99980.81;;;20.57;50.25
40730;BME280;26418;50.070;8.436;2024-03-22T12:38:13;99969.47;;;20.36;50.39
40730;BME280;26418;50.070;8.436;2024-03-22T12:40:40;99970.50;;;20.27;51.86
40730;BME280;26418;50.070;8.436;2024-03-22T12:43:12;99980.63;;;20.23;51.45
40730;BME280;26418;50.070;8.436;2024-03-22T12:45:40;99979.41;;;20.21;51.89
40730;BME280;26418;50.070;8.436;2024-03-22T12:48:09;99967.50;;;20.13;51.34
40730;BME280;26418;50.070;8.436;2024-03-22T12:50:35;99956.47;;;20.09;51.34
40730;BME280;26418;50.070;8.436;2024-03-22T12:53:00;99957.75;;;20.16;52.10
40730;BME280;26418;50.070;8.436;2024-03-22T12:55:26;99963.94;;;20.13;51.41
40730;BME280;26418;50.070;8.436;2024-03-22T12:57:59;99948.97;;;19.87;51.14
40730;BME280;26418;50.070;8.436;2024-03-22T13:00:25;99956.03;;;19.68;51.31
40730;BME280;26418;50.070;8.436;2024-03-22T13:02:50;99946.41;;;19.58;52.58
40730;BME280;26418;50.070;8.436;2024-03-22T13:05:16;99954.13;;;19.53;51.78
40730;BME280;26418;50.070;8.436;2024-03-22T13:07:42;99950.75;;;19.59;52.54
40730;BME280;26418;50.070;8.436;2024-03-22T13:10:10;99946.34;;;19.55;53.29
40730;BME280;26418;50.070;8.436;2024-03-22T13:12:35;99940.94;;;19.39;53.39
40730;BME280;26418;50.070;8.436;2024-03-22T13:15:01;99937.31;;;19.35;53.19
40730;BME280;26418;50.070;8.436;2024-03-22T13:17:27;99939.09;;;19.27;53.37
40730;BME280;26418;50.070;8.436;2024-03-22T13:19:53;99934.31;;;19.04;53.56
40730;BME280;26418;50.070;8.436;2024-03-22T13:22:18;99936.63;;;18.86;54.47
40730;BME280;26418;50.070;8.436;2024-03-22T13:24:45;99930.00;;;18.71;55.29
40730;BME280;26418;50.070;8.436;2024-03-22T13:27:14;99921.09;;;18.58;56.04
40730;BME280;26418;50.070;8.436;2024-03-22T13:29:40;99926.69;;;18.46;56.07
40730;BME280;26418;50.070;8.436;2024-03-22T13:32:06;99919.44;;;18.37;56.13
40730;BME280;26418;50.070;8.436;2024-03-22T13:34:35;99913.84;;;18.18;56.16
40730;BME280;26418;50.070;8.436;2024-03-22T13:37:01;99911.38;;;17.97;56.94
40730;BME280;26418;50.070;8.436;2024-03-22T13:39:26;99908.78;;;17.88;57.46
40730;BME280;26418;50.070;8.436;2024-03-22T13:41:55;99912.28;;;17.88;58.33
40730;BME280;26418;50.070;8.436;2024-03-22T13:44:24;99906.53;;;17.94;58.22
40730;BME280;26418;50.070;8.436;2024-03-22T13:46:53;99905.53;;;17.98;58.05
40730;BME280;26418;50.070;8.436;2024-03-22T13:49:19;99896.72;;;18.05;57.87
40730;BME280;26418;50.070;8.436;2024-03-22T13:51:48;99896.03;;;18.08;57.85
40730;BME280;26418;50.070;8.436;2024-03-22T13:54:17;99884.56;;;17.90;57.97
40730;BME280;26418;50.070;8.436;2024-03-22T13:56:43;99893.03;;;17.85;58.53
40730;BME280;26418;50.070;8.436;2024-03-22T13:59:09;99888.97;;;17.79;58.84
40730;BME280;26418;50.070;8.436;2024-03-22T14:01:36;99886.84;;;17.72;59.20
40730;BME280;26418;50.070;8.436;2024-03-22T14:04:03;99886.38;;;17.70;59.86
40730;BME280;26418;50.070;8.436;2024-03-22T14:06:30;99876.59;;;17.69;60.15
40730;BME280;26418;50.070;8.436;2024-03-22T14:08:59;99875.53;;;17.73;60.24
40730;BME280;26418;50.070;8.436;2024-03-22T14:11:33;99864.97;;;17.72;59.51